Latest Weather Observations for Lombadina

IDW60801

Issued at 12:02 pm WST Wednesday 8 July 2015 (issued every 30 minutes, with the page automatically refreshed every 10 minutes)

About weather observations | Map of weather stations | Latest weather observations for WA | Other Formats
Station Details ID: 503016 Name: LOMBADINA AIRSTRIP Lat: -16.52 Lon: 122.92 Height: 42.0 m
Data from the previous 72 hours. | See also: Recent months for locations in Western Australia
Date/Time
WST
Temp
°C
App
Temp
°C
Dew
Point
Rel
Hum
%
Delta-T
°C
Wind Press
QNH
hPa
Press
MSL
hPa
Rain
since 9 am
mm
Dir
 
Spd
km/h
Gust
km/h
Spd
kts
Gust
kts
08/12:00pm 29.5 29.0 10.8 31 10.7 NE 4 7 2 4 1011.8 1011.6 0.0
08/11:30am 28.1 27.5 11.6 36 9.5 ENE 6 11 3 6 1012.5 1012.3 0.0
08/11:00am 26.8 26.3 12.5 41 8.3 ESE 7 13 4 7 1013.0 1012.8 0.0
08/10:30am 25.9 25.6 13.2 45 7.4 SE 7 13 4 7 1013.4 1013.2 0.0
08/10:00am 26.1 24.0 9.8 35 9.0 E 11 19 6 10 1013.8 1013.6 0.0
08/09:30am 26.2 22.9 6.6 28 10.3 ESE 13 22 7 12 1013.7 1013.5 0.0
08/09:00am 25.8 24.0 7.9 32 9.6 ESE 7 13 4 7 1013.7 1013.5 0.0
08/08:30am 24.2 23.0 9.4 39 8.1 SE 6 9 3 5 1013.6 1013.4 0.0
08/08:00am 22.7 21.3 8.8 41 7.4 SE 6 9 3 5 1013.2 1013.0 0.0
08/07:30am 21.8 20.3 8.6 42 7.0 SE 6 11 3 6 1012.9 1012.7 0.0
08/07:00am 20.9 19.2 8.5 45 6.5 SE 7 15 4 8 1012.6 1012.4 0.0
08/06:30am 20.0 18.5 9.3 50 5.7 SE 7 11 4 6 1012.4 1012.2 0.0
08/06:00am 20.1 18.7 9.6 51 5.6 SE 7 13 4 7 1012.3 1012.1 0.0
08/05:30am 20.2 18.8 9.5 50 5.7 SE 7 13 4 7 1012.0 1011.8 0.0
08/05:00am 20.2 19.0 9.5 50 5.7 SE 6 9 3 5 1012.0 1011.8 0.0
08/04:30am 19.4 18.2 9.6 53 5.2 SE 6 9 3 5 1012.0 1011.8 0.0
08/04:00am 20.4 19.0 8.7 47 6.2 SE 6 7 3 4 1011.9 1011.7 0.0
08/03:30am 21.2 19.6 8.0 42 6.9 SE 6 11 3 6 1011.9 1011.7 0.0
08/03:00am 20.5 19.4 8.5 46 6.3 S 4 9 2 5 1011.7 1011.5 0.0
08/02:30am 19.8 18.8 8.7 48 5.8 S 4 7 2 4 1011.9 1011.7 0.0
08/02:00am 19.8 18.9 9.4 51 5.5 S 4 6 2 3 1012.1 1011.9 0.0
08/01:30am 20.8 20.1 10.2 50 5.7 S 4 7 2 4 1012.3 1012.1 0.0
08/01:00am 21.6 21.1 10.7 50 6.0 S 4 7 2 4 1012.5 1012.3 0.0
08/12:30am 22.2 21.1 10.7 48 6.3 SSW 7 11 4 6 1012.9 1012.7 0.0
08/12:00am 21.8 20.9 11.4 51 5.8 SSW 7 11 4 6 1012.8 1012.6 0.0
 
Date/Time
WST
Temp
°C
App
Temp
°C
Dew
Point
Rel
Hum
%
Delta-T
°C
Wind Press
QNH
hPa
Press
MSL
hPa
Rain
since 9 am
mm
Dir
 
Spd
km/h
Gust
km/h
Spd
kts
Gust
kts
07/11:30pm 20.8 20.5 12.6 59 4.6 SSW 6 9 3 5 1012.6 1012.4 0.0
07/11:00pm 20.5 20.4 13.3 63 4.1 SW 6 9 3 5 1012.7 1012.5 0.0
07/10:30pm 21.2 21.5 14.4 65 4.0 SW 6 9 3 5 1012.9 1012.7 0.0
07/10:00pm 20.8 21.3 14.9 69 3.5 SW 6 7 3 4 1012.9 1012.7 0.0
07/09:30pm 21.0 21.6 15.3 70 3.4 SW 6 9 3 5 1012.9 1012.7 0.0
07/09:00pm 21.7 22.4 16.2 71 3.3 SSW 7 13 4 7 1012.9 1012.7 0.0
07/08:30pm 21.4 23.0 18.3 82 1.9 SSW 7 13 4 7 1012.8 1012.6 0.0
07/08:00pm 21.1 22.7 18.2 83 1.8 SW 7 9 4 5 1012.8 1012.6 0.0
07/07:30pm 20.1 20.9 14.8 71 3.1 SW 4 6 2 3 1012.8 1012.6 0.0
07/07:00pm 20.9 22.6 16.2 74 2.8 W 2 4 1 2 1012.6 1012.4 0.0
07/06:30pm 21.1 21.9 13.8 63 4.2 WSW 2 6 1 3 1012.4 1012.2 0.0
07/06:00pm 22.4 23.3 14.0 59 4.9 NW 2 4 1 2 1012.2 1012.0 0.0
07/05:30pm 24.3 25.4 13.5 51 6.3 CALM 0 0 0 0 1012.0 1011.8 0.0
07/05:00pm 27.3 27.5 12.0 38 8.8 ESE 2 4 1 2 1011.8 1011.6 0.0
07/04:30pm 28.0 27.2 11.2 35 9.6 ENE 6 7 3 4 1011.5 1011.3 0.0
07/04:00pm 28.0 27.4 11.8 36 9.4 ESE 6 9 3 5 1011.5 1011.3 0.0
07/03:30pm 28.0 27.6 12.9 39 8.9 ESE 7 11 4 6 1011.5 1011.3 0.0
07/03:00pm 28.0 27.0 11.1 35 9.7 ENE 7 11 4 6 1011.5 1011.3 0.0
07/02:30pm 28.2 26.9 11.1 34 9.8 ENE 9 15 5 8 1011.6 1011.4 0.0
07/02:00pm 28.2 26.1 9.8 31 10.3 E 11 19 6 10 1011.8 1011.6 0.0
07/01:30pm 28.8 27.2 11.4 34 10.0 ENE 11 17 6 9 1011.9 1011.7 0.0
07/01:00pm 28.6 27.3 11.3 34 9.9 ESE 9 15 5 8 1012.3 1012.1 0.0
07/12:30pm 27.3 25.7 11.7 37 9.0 E 11 19 6 10 1012.6 1012.4 0.0
07/12:00pm 26.6 25.1 11.9 40 8.5 ESE 11 20 6 11 1013.1 1012.9 0.0
07/11:30am 25.9 23.8 11.0 39 8.4 ESE 13 20 7 11 1013.5 1013.3 0.0
07/11:00am 25.1 22.7 11.5 42 7.7 ESE 15 22 8 12 1014.0 1013.8 0.0
07/10:30am 25.2 22.6 12.0 43 7.6 ESE 17 26 9 14 1014.2 1014.0 0.0
07/10:00am 25.3 23.0 11.8 43 7.7 ESE 15 26 8 14 1014.3 1014.1 0.0
07/09:30am 24.8 21.7 8.8 36 8.6 ESE 15 26 8 14 1014.3 1014.1 0.0
07/09:00am 24.1 21.8 10.6 42 7.5 SE 13 22 7 12 1014.3 1014.1 0.0
07/08:30am 22.8 20.6 10.8 46 6.6 ESE 13 22 7 12 1014.3 1014.1 0.0
07/08:00am 21.5 19.6 10.4 49 6.1 SE 11 20 6 11 1014.0 1013.8 0.0
07/07:30am 20.0 17.5 6.6 41 6.8 SE 9 17 5 9 1013.9 1013.7 0.0
07/07:00am 18.4 15.3 3.7 37 6.9 SE 9 15 5 8 1013.7 1013.5 0.0
07/06:30am 18.6 15.3 2.5 34 7.4 SE 9 17 5 9 1013.3 1013.1 0.0
07/06:00am 19.3 16.1 3.0 34 7.6 SE 9 19 5 10 1013.2 1013.0 0.0
07/05:30am 20.2 16.5 2.5 31 8.2 SE 11 20 6 11 1013.2 1013.0 0.0
07/05:00am 20.3 17.3 2.2 30 8.4 SE 7 13 4 7 1013.0 1012.8 0.0
07/04:30am 20.6 17.7 2.4 30 8.5 SSE 7 13 4 7 1012.9 1012.7 0.0
07/04:00am 19.7 17.0 2.5 32 8.0 SSE 6 9 3 5 1012.8 1012.6 0.0
07/03:30am 19.9 17.0 2.8 32 8.0 SSE 7 15 4 8 1012.9 1012.7 0.0
07/03:00am 19.4 16.7 3.5 35 7.5 SSE 7 15 4 8 1012.9 1012.7 0.0
07/02:30am 19.4 17.1 4.6 37 7.1 ESE 6 9 3 5 1013.2 1013.0 0.0
07/02:00am 20.6 17.7 4.6 35 7.8 SSE 9 20 5 11 1013.2 1013.0 0.0
07/01:30am 20.2 18.4 7.2 43 6.6 SSE 6 11 3 6 1013.2 1013.0 0.0
07/01:00am 19.3 18.5 9.5 53 5.2 SSE 4 7 2 4 1013.2 1013.0 0.0
07/12:30am 20.2 19.3 10.5 53 5.3 SSW 6 9 3 5 1013.1 1012.9 0.0
07/12:00am 20.1 19.2 11.4 57 4.8 SW 7 11 4 6 1013.2 1013.0 0.0
 
Date/Time
WST
Temp
°C
App
Temp
°C
Dew
Point
Rel
Hum
%
Delta-T
°C
Wind Press
QNH
hPa
Press
MSL
hPa
Rain
since 9 am
mm
Dir
 
Spd
km/h
Gust
km/h
Spd
kts
Gust
kts
06/11:30pm 19.9 19.6 12.6 63 4.1 SSW 6 7 3 4 1013.6 1013.4 0.0
06/11:00pm 19.3 19.5 14.2 72 2.9 SSW 6 11 3 6 1013.6 1013.4 0.0
06/10:30pm 18.4 19.4 16.4 88 1.2 SSW 6 11 3 6 1014.0 1013.8 0.0
06/10:00pm 18.1 19.2 16.7 91 0.8 SSW 6 9 3 5 1014.2 1014.0 0.0
06/09:30pm 17.5 18.9 15.3 87 1.3 SSW 2 4 1 2 1014.2 1014.0 0.0
06/09:00pm 17.1 16.8 12.7 75 2.4 SW 6 7 3 4 1014.2 1014.0 0.0
06/08:30pm 17.2 16.6 11.6 69 3.1 SSW 6 11 3 6 1014.3 1014.1 0.0
06/08:00pm 17.8 18.5 13.3 75 2.5 S 2 2 1 1 1014.1 1013.9 0.0
06/07:30pm 18.3 18.8 11.5 64 3.7 CALM 0 2 0 1 1013.9 1013.7 0.0
06/07:00pm 19.6 20.1 12.8 65 3.8 ENE 2 4 1 2 1013.6 1013.4 0.0
06/06:30pm 19.9 20.4 12.7 63 4.1 E 2 2 1 1 1013.4 1013.2 0.0
06/06:00pm 20.8 20.5 10.0 50 5.8 E 2 2 1 1 1013.3 1013.1 0.0
06/05:30pm 23.1 22.5 9.0 40 7.6 E 2 4 1 2 1013.0 1012.8 0.0
06/05:00pm 26.4 24.0 4.1 23 11.2 ENE 6 7 3 4 1012.7 1012.5 0.0
06/04:30pm 27.4 24.6 3.1 21 12.1 ENE 7 11 4 6 1012.5 1012.3 0.0
06/04:00pm 27.8 24.9 2.7 20 12.4 ENE 7 15 4 8 1012.4 1012.2 0.0
06/03:30pm 27.9 25.4 4.9 23 11.8 E 7 11 4 6 1012.3 1012.1 0.0
06/03:00pm 27.9 25.5 6.9 26 11.2 ESE 9 15 5 8 1012.4 1012.2 0.0
06/02:30pm 28.0 25.5 5.0 23 11.8 E 7 17 4 9 1012.5 1012.3 0.0
06/02:00pm 27.6 24.8 5.3 24 11.5 E 9 19 5 10 1012.6 1012.4 0.0
06/01:30pm 27.3 24.0 4.7 23 11.5 SE 11 19 6 10 1012.6 1012.4 0.0
06/01:00pm 27.0 24.1 6.5 27 10.8 ESE 11 19 6 10 1012.9 1012.7 0.0
06/12:30pm 26.2 23.5 7.3 30 10.0 ESE 11 20 6 11 1013.3 1013.1 0.0
06/12:00pm 25.7 22.3 7.5 31 9.7 SE 15 20 8 11 1013.9 1013.7 0.0
06/11:30am 25.6 22.6 7.7 32 9.5 ESE 13 22 7 12 1014.3 1014.1 0.0
06/11:00am 24.8 21.8 7.5 33 9.1 ESE 13 24 7 13 1014.8 1014.6 0.0
06/10:30am 24.7 21.3 7.8 34 9.0 ESE 15 26 8 14 1015.1 1014.9 0.0
06/10:00am 23.8 21.0 10.1 42 7.5 ESE 15 24 8 13 1015.5 1015.3 0.0
06/09:30am 23.1 20.6 9.8 43 7.2 ESE 13 26 7 14 1015.7 1015.5 0.0
06/09:00am 22.5 19.8 8.8 41 7.3 ESE 13 20 7 11 1015.6 1015.4 0.0
06/08:30am 21.2 18.5 9.1 46 6.4 ESE 13 24 7 13 1015.7 1015.5 0.0
06/08:00am 19.6 17.0 7.7 46 6.1 ESE 11 19 6 10 1015.6 1015.4 0.0
06/07:30am 17.9 15.1 5.1 43 6.2 SE 9 17 5 9 1015.2 1015.0 0.0
06/07:00am 16.8 13.6 0.8 34 7.0 SE 7 13 4 7 1015.0 1014.8 0.0
06/06:30am 16.5 13.0 -1.5 29 7.5 SSE 7 15 4 8 1014.8 1014.6 0.0
06/06:00am 16.4 12.3 -3.2 26 7.8 SSE 9 15 5 8 1014.6 1014.4 0.0
06/05:30am 16.8 12.7 -2.8 26 7.9 SE 9 17 5 9 1014.5 1014.3 0.0
06/05:00am 17.7 14.1 0.4 31 7.6 SE 9 17 5 9 1014.1 1013.9 0.0
06/04:30am 17.5 13.8 -0.2 30 7.6 SSE 9 15 5 8 1013.8 1013.6 0.0
06/04:00am 17.6 14.6 1.9 35 7.1 SSE 7 15 4 8 1013.8 1013.6 0.0
06/03:30am 17.5 15.0 5.0 43 6.0 SSE 7 15 4 8 1013.7 1013.5 0.0
06/03:00am 16.5 13.8 3.5 42 6.0 SSE 7 11 4 6 1013.9 1013.7 0.0
06/02:30am 15.3 12.6 2.7 42 5.7 SE 6 9 3 5 1014.1 1013.9 0.0
06/02:00am 15.1 12.3 1.8 40 5.9 SE 6 9 3 5 1014.3 1014.1 0.0
06/01:30am 17.0 14.2 2.1 36 6.7 SE 6 11 3 6 1014.5 1014.3 0.0
06/01:00am 16.6 13.8 2.2 38 6.5 SSE 6 9 3 5 1014.6 1014.4 0.0
06/12:30am 16.5 14.0 3.6 42 6.0 SSE 6 11 3 6 1014.7 1014.5 0.0
06/12:00am 17.8 15.4 4.5 41 6.3 SSE 6 9 3 5 1014.8 1014.6 0.0
 
Date/Time
WST
Temp
°C
App
Temp
°C
Dew
Point
Rel
Hum
%
Delta-T
°C
Wind Press
QNH
hPa
Press
MSL
hPa
Rain
since 9 am
mm
Dir
 
Spd
km/h
Gust
km/h
Spd
kts
Gust
kts
05/11:30pm 18.5 16.8 5.7 43 6.3 SE 4 7 2 4 1014.9 1014.7 0.0
05/11:00pm 16.4 14.5 6.5 52 4.9 S 6 9 3 5 1014.6 1014.4 0.0
05/10:30pm 17.3 16.1 8.1 54 4.7 S 4 7 2 4 1014.8 1014.6 0.0
05/10:00pm 18.5 17.1 9.0 54 5.0 S 6 9 3 5 1014.8 1014.6 0.0
05/09:30pm 18.2 16.9 9.2 55 4.7 SSW 6 9 3 5 1014.8 1014.6 0.0
05/09:00pm 18.8 17.7 10.0 56 4.7 SSW 6 9 3 5 1014.9 1014.7 0.0
05/08:30pm 18.2 17.2 10.4 60 4.2 SSW 6 11 3 6 1014.9 1014.7 0.0
05/08:00pm 16.4 13.5 1.3 36 6.6 SSW 6 7 3 4 1014.9 1014.7 0.0
05/07:30pm 17.2 14.7 1.6 35 7.0 S 4 7 2 4 1014.6 1014.4 0.0
05/07:00pm 18.0 15.5 3.5 38 6.8 S 6 7 3 4 1014.3 1014.1 0.0
05/06:30pm 17.8 15.8 4.3 40 6.4 SSE 4 7 2 4 1014.0 1013.8 0.0
05/06:00pm 19.9 18.3 4.3 35 7.5 SE 2 6 1 3 1013.8 1013.6 0.0
05/05:30pm 21.9 20.3 4.3 31 8.6 ESE 2 6 1 3 1013.6 1013.4 0.0
05/05:00pm 24.8 22.1 2.9 24 10.6 ESE 6 9 3 5 1013.5 1013.3 0.0
05/04:30pm 25.7 22.2 1.0 20 11.7 ESE 9 17 5 9 1013.5 1013.3 0.0
05/04:00pm 26.2 22.4 1.5 20 11.8 ESE 11 20 6 11 1013.4 1013.2 0.0
05/03:30pm 26.8 23.4 1.9 20 12.0 ESE 9 20 5 11 1013.6 1013.4 0.0
05/03:00pm 26.8 23.9 4.7 24 11.2 ESE 9 19 5 10 1013.5 1013.3 0.0
05/02:30pm 27.7 24.2 3.6 21 12.1 E 11 19 6 10 1013.5 1013.3 0.0
05/02:00pm 27.5 24.0 3.3 21 12.1 E 11 19 6 10 1013.8 1013.6 0.0
05/01:30pm 26.8 23.6 5.1 25 11.1 E 11 19 6 10 1014.1 1013.9 0.0
05/01:00pm 26.5 24.0 8.0 31 9.9 E 11 17 6 9 1014.5 1014.3 0.0
05/12:30pm 26.4 23.7 7.4 30 10.1 E 11 20 6 11 1014.8 1014.6 0.0

Other Formats:

Comma delimited format used in spreadsheet applications
http://www.bom.gov.au/fwo/IDW60801/IDW60801.99206.axf

JavaScript Object Notation format (JSON) in row-major order
http://www.bom.gov.au/fwo/IDW60801/IDW60801.99206.json